Time;durP1;ratioP1;P1;durP2;ratioP2;P2;SDS_P1;SDS_P2;PMS_P1;PMS_P2;Temp;Humidity;BMP_temperature;BMP_pressure;BME280_temperature;BME280_humidity;BME280_pressure;Samples;Min_cycle;Max_cycle;Signal;HPM_P1;HPM_P2
2022/01/07 00:00:39;;;;;;;13.20;8.17;;;0.40;99.90;;;;;;5032766;28;20268;-58
2022/01/07 00:03:07;;;;;;;15.77;8.00;;;0.50;99.90;;;;;;5032722;28;20245;-59
2022/01/07 00:05:34;;;;;;;17.17;8.03;;;0.50;99.90;;;;;;5032510;28;20550;-59
2022/01/07 00:08:02;;;;;;;17.23;8.47;;;0.60;99.90;;;;;;5032425;28;20226;-57
2022/01/07 00:10:29;;;;;;;14.17;8.00;;;0.60;99.90;;;;;;5032241;28;20206;-56
2022/01/07 00:12:55;;;;;;;13.40;8.10;;;0.50;99.90;;;;;;5032720;28;20606;-59
2022/01/07 00:15:23;;;;;;;12.07;7.47;;;0.50;99.90;;;;;;5032459;28;20209;-58
2022/01/07 00:17:50;;;;;;;14.87;7.20;;;0.40;99.90;;;;;;5051188;22;20239;-61
2022/01/07 00:20:17;;;;;;;15.07;7.17;;;0.50;99.90;;;;;;5011991;28;20206;-61
2022/01/07 00:22:46;;;;;;;13.47;7.50;;;0.50;99.90;;;;;;5012379;28;20206;-61
2022/01/07 00:25:15;;;;;;;13.10;7.07;;;0.60;99.90;;;;;;5012200;28;20211;-61
2022/01/07 00:27:42;;;;;;;13.77;7.80;;;0.60;99.90;;;;;;5012404;28;20281;-61
2022/01/07 00:30:11;;;;;;;12.07;7.77;;;0.60;99.90;;;;;;5012096;28;20265;-61
2022/01/07 00:32:39;;;;;;;12.30;7.43;;;0.60;99.90;;;;;;5012435;28;20207;-61
2022/01/07 00:35:08;;;;;;;9.63;6.37;;;0.60;99.90;;;;;;5012976;28;20658;-61
2022/01/07 00:37:35;;;;;;;14.07;7.10;;;0.60;99.90;;;;;;5011978;28;20227;-61
2022/01/07 00:40:04;;;;;;;12.03;6.93;;;0.50;99.90;;;;;;5012132;28;20221;-61
2022/01/07 00:42:32;;;;;;;11.27;6.47;;;0.40;99.90;;;;;;5012482;28;20214;-61
2022/01/07 00:44:58;;;;;;;12.63;7.20;;;0.40;99.90;;;;;;5015150;28;20214;-61
2022/01/07 00:47:25;;;;;;;11.57;7.00;;;0.40;99.90;;;;;;5016090;28;20211;-61
2022/01/07 00:49:52;;;;;;;15.00;6.83;;;0.40;99.90;;;;;;5015864;28;20689;-61
2022/01/07 00:52:19;;;;;;;13.20;6.90;;;0.30;99.90;;;;;;5015901;28;20264;-61
2022/01/07 00:54:45;;;;;;;10.93;6.47;;;0.20;99.90;;;;;;5016314;28;20806;-61
2022/01/07 00:57:12;;;;;;;10.93;7.13;;;0.20;99.90;;;;;;5015942;28;20261;-61
2022/01/07 00:59:40;;;;;;;9.90;6.20;;;0.20;99.90;;;;;;5015921;28;20210;-61
2022/01/07 01:02:07;;;;;;;11.80;6.53;;;0.10;99.90;;;;;;5015933;28;20214;-61
2022/01/07 01:04:33;;;;;;;11.43;6.43;;;-0.10;99.90;;;;;;5015799;28;20583;-61
2022/01/07 01:07:00;;;;;;;12.90;6.43;;;-0.10;99.90;;;;;;5015726;28;20211;-61
2022/01/07 01:09:27;;;;;;;9.00;6.03;;;0.00;99.90;;;;;;5015696;28;20223;-61
2022/01/07 01:11:54;;;;;;;12.77;6.60;;;0.10;99.90;;;;;;5015882;28;20218;-62
2022/01/07 01:14:20;;;;;;;10.90;6.60;;;0.20;99.90;;;;;;5015771;28;20253;-61
2022/01/07 01:16:48;;;;;;;17.13;7.93;;;0.20;99.90;;;;;;5015537;28;20599;-61
2022/01/07 01:19:15;;;;;;;13.53;7.00;;;0.20;99.90;;;;;;5015122;28;20308;-61
2022/01/07 01:21:42;;;;;;;13.47;7.50;;;0.10;99.90;;;;;;5015788;28;20234;-61
2022/01/07 01:24:08;;;;;;;11.23;6.93;;;-0.10;99.90;;;;;;5015728;28;20214;-61
2022/01/07 01:26:35;;;;;;;15.50;7.27;;;-0.30;99.90;;;;;;5015465;28;20245;-61
2022/01/07 01:29:02;;;;;;;9.30;6.17;;;-0.20;99.90;;;;;;5015276;28;20222;-61
2022/01/07 01:31:30;;;;;;;12.03;7.30;;;-0.30;99.90;;;;;;5015346;28;20215;-61
2022/01/07 01:33:58;;;;;;;14.20;6.70;;;-0.30;99.90;;;;;;5015279;28;20298;-61
2022/01/07 01:36:25;;;;;;;10.87;6.63;;;-0.30;99.90;;;;;;5015507;28;20634;-61
2022/01/07 01:38:52;;;;;;;13.20;7.20;;;-0.30;99.90;;;;;;5015125;28;20301;-61
2022/01/07 01:41:18;;;;;;;13.57;6.50;;;-0.30;99.90;;;;;;5015250;28;20273;-62
2022/01/07 01:43:48;;;;;;;13.40;6.63;;;-0.20;99.90;;;;;;5015159;28;20273;-62
2022/01/07 01:46:15;;;;;;;12.50;6.30;;;-0.20;99.90;;;;;;5015069;28;20702;-61
2022/01/07 01:48:42;;;;;;;10.47;6.80;;;-0.30;99.90;;;;;;5014753;28;20882;-61
2022/01/07 01:51:10;;;;;;;13.33;6.43;;;-0.40;99.90;;;;;;5015230;28;20257;-62
2022/01/07 01:53:36;;;;;;;14.07;6.30;;;-0.30;99.90;;;;;;5015156;28;20261;-62
2022/01/07 01:56:04;;;;;;;9.40;6.03;;;-0.30;99.90;;;;;;5014953;28;20203;-63
2022/01/07 01:58:31;;;;;;;8.97;6.57;;;-0.30;99.90;;;;;;5015237;28;20281;-62
2022/01/07 02:00:58;;;;;;;13.37;6.97;;;-0.20;99.90;;;;;;5014631;28;20214;-62
2022/01/07 02:03:24;;;;;;;11.73;5.93;;;-0.20;99.90;;;;;;5015007;28;20277;-62
2022/01/07 02:05:51;;;;;;;13.07;6.80;;;-0.20;99.90;;;;;;5014986;28;20265;-62
2022/01/07 02:08:19;;;;;;;10.87;6.60;;;-0.30;99.90;;;;;;5014551;28;20772;-62
2022/01/07 02:10:46;;;;;;;12.93;6.53;;;-0.40;99.90;;;;;;5014492;28;20231;-62
2022/01/07 02:13:16;;;;;;;10.07;6.20;;;-0.50;99.90;;;;;;5014724;28;20211;-62
2022/01/07 02:15:42;;;;;;;10.60;6.20;;;-0.40;99.90;;;;;;5014488;28;20733;-62
2022/01/07 02:18:09;;;;;;;13.10;6.67;;;-0.20;99.90;;;;;;5014513;28;20293;-62
2022/01/07 02:20:37;;;;;;;12.70;6.13;;;-0.20;99.90;;;;;;5014391;28;20211;-62
2022/01/07 02:23:04;;;;;;;12.27;6.20;;;-0.20;99.90;;;;;;5014601;28;20230;-62
2022/01/07 02:25:31;;;;;;;9.90;6.30;;;-0.10;99.90;;;;;;5014379;28;20254;-62
2022/01/07 02:27:58;;;;;;;13.20;6.60;;;0.10;99.90;;;;;;5014272;28;20222;-62
2022/01/07 02:30:27;;;;;;;13.07;6.60;;;0.20;99.90;;;;;;5014312;28;20650;-62
2022/01/07 02:32:54;;;;;;;11.67;6.80;;;0.30;99.90;;;;;;5014340;28;20729;-62
2022/01/07 02:35:22;;;;;;;11.30;5.97;;;0.40;99.90;;;;;;5014330;28;20674;-62
2022/01/07 02:37:50;;;;;;;11.70;6.00;;;0.40;99.90;;;;;;5014302;28;20600;-62
2022/01/07 02:40:17;;;;;;;10.77;5.97;;;0.40;99.90;;;;;;5013946;28;20203;-62
2022/01/07 02:42:45;;;;;;;9.03;6.37;;;0.40;99.90;;;;;;5014080;28;20254;-62
2022/01/07 02:45:13;;;;;;;9.37;6.03;;;0.30;99.90;;;;;;5014406;28;20215;-62
2022/01/07 02:47:49;;;;;;;12.27;6.63;;;0.30;99.90;;;;;;5013963;28;20277;-62
2022/01/07 02:50:17;;;;;;;12.70;6.60;;;0.30;99.90;;;;;;5014037;28;20203;-62
2022/01/07 02:52:43;;;;;;;11.97;6.10;;;0.40;99.90;;;;;;5014104;28;20565;-62
2022/01/07 02:55:12;;;;;;;9.70;5.70;;;0.40;99.90;;;;;;5013762;28;20341;-62
2022/01/07 02:57:39;;;;;;;8.00;5.60;;;0.40;99.90;;;;;;5013676;28;20710;-62
2022/01/07 03:00:08;;;;;;;11.97;6.10;;;0.50;99.90;;;;;;5013748;28;20234;-62
2022/01/07 03:02:35;;;;;;;12.97;6.10;;;0.50;99.90;;;;;;5013911;28;20211;-62
2022/01/07 03:05:02;;;;;;;18.20;6.47;;;0.70;99.90;;;;;;5014246;28;20207;-62
2022/01/07 03:07:29;;;;;;;11.57;6.30;;;0.70;99.90;;;;;;5012976;28;20211;-62
2022/01/07 03:09:56;;;;;;;10.30;6.00;;;0.70;99.90;;;;;;5013259;28;20230;-62
2022/01/07 03:12:24;;;;;;;11.40;5.43;;;0.70;99.90;;;;;;5013726;28;20269;-62
2022/01/07 03:14:51;;;;;;;10.83;6.03;;;0.70;99.90;;;;;;5013671;28;20211;-62
2022/01/07 03:17:17;;;;;;;10.47;6.10;;;0.70;99.90;;;;;;5013340;28;20211;-62
2022/01/07 03:19:44;;;;;;;6.47;5.23;;;0.70;99.90;;;;;;5013135;28;20223;-62
2022/01/07 03:22:11;;;;;;;12.13;5.10;;;0.70;99.90;;;;;;5013272;28;20211;-62
2022/01/07 03:24:38;;;;;;;12.00;5.50;;;0.80;99.90;;;;;;5013452;28;20215;-62
2022/01/07 03:27:06;;;;;;;12.37;6.20;;;0.90;99.90;;;;;;5013214;28;20652;-62
2022/01/07 03:29:35;;;;;;;10.43;5.90;;;0.90;99.90;;;;;;5012994;28;20230;-62
2022/01/07 03:32:01;;;;;;;12.57;5.90;;;0.90;99.90;;;;;;5013265;28;20655;-62
2022/01/07 03:34:28;;;;;;;10.23;5.50;;;0.90;99.90;;;;;;5012964;28;20631;-62
2022/01/07 03:36:55;;;;;;;14.73;5.63;;;0.90;99.90;;;;;;5013007;28;20207;-62
2022/01/07 03:39:21;;;;;;;12.00;5.10;;;0.90;99.90;;;;;;5012813;28;20266;-62
2022/01/07 03:41:48;;;;;;;9.80;5.47;;;0.90;99.90;;;;;;5013374;28;20206;-62
2022/01/07 03:44:15;;;;;;;13.60;5.30;;;1.00;99.90;;;;;;5013034;28;20203;-62
2022/01/07 03:46:43;;;;;;;7.33;5.17;;;1.00;99.90;;;;;;5012932;28;20214;-62
2022/01/07 03:49:09;;;;;;;14.37;5.40;;;1.00;99.90;;;;;;5012510;28;20273;-62
2022/01/07 03:51:37;;;;;;;13.13;6.13;;;1.00;99.90;;;;;;5012779;28;20207;-62
2022/01/07 03:54:04;;;;;;;11.73;6.90;;;1.00;99.90;;;;;;5013756;28;20203;-62
2022/01/07 03:56:30;;;;;;;12.33;6.17;;;1.00;99.90;;;;;;5012813;28;20214;-62
2022/01/07 03:58:57;;;;;;;13.43;6.03;;;1.00;99.90;;;;;;5012644;28;20285;-62
2022/01/07 04:01:24;;;;;;;9.07;5.40;;;0.90;99.90;;;;;;5012762;28;20210;-62
2022/01/07 04:03:52;;;;;;;11.53;5.63;;;1.00;99.90;;;;;;5012459;28;20210;-62
2022/01/07 04:06:20;;;;;;;14.33;6.73;;;1.10;99.90;;;;;;5012542;28;20626;-62
2022/01/07 04:08:47;;;;;;;14.37;6.90;;;1.10;99.90;;;;;;5012657;28;20223;-62
2022/01/07 04:11:14;;;;;;;12.83;5.83;;;1.20;99.90;;;;;;5012467;28;20297;-62
2022/01/07 04:13:41;;;;;;;11.43;5.37;;;1.20;99.90;;;;;;5012365;28;20203;-62
2022/01/07 04:16:08;;;;;;;10.27;5.80;;;1.20;99.90;;;;;;5012480;28;20268;-62
2022/01/07 04:18:35;;;;;;;9.10;5.00;;;1.20;99.90;;;;;;5011212;28;20293;-62
2022/01/07 04:21:03;;;;;;;11.37;6.10;;;1.30;99.90;;;;;;5012357;28;20206;-62
2022/01/07 04:23:30;;;;;;;10.93;5.63;;;1.30;99.90;;;;;;5012498;28;20207;-60
2022/01/07 04:25:57;;;;;;;10.63;5.20;;;1.30;99.90;;;;;;5012421;28;20203;-60
2022/01/07 04:28:24;;;;;;;9.27;4.97;;;1.30;99.90;;;;;;5012223;28;20261;-60
2022/01/07 04:30:51;;;;;;;10.67;5.70;;;1.30;99.90;;;;;;5012020;28;20207;-60
2022/01/07 04:33:25;;;;;;;13.47;5.90;;;1.30;99.90;;;;;;5012301;28;20215;-60
2022/01/07 04:35:52;;;;;;;24.03;12.00;;;1.20;99.90;;;;;;5012388;28;20213;-60
2022/01/07 04:38:20;;;;;;;7.90;5.53;;;1.10;99.90;;;;;;5012216;28;20254;-60
2022/01/07 04:40:47;;;;;;;10.33;6.17;;;1.00;99.90;;;;;;5011970;28;20231;-61
2022/01/07 04:43:15;;;;;;;11.87;6.27;;;0.90;99.90;;;;;;5012159;28;20207;-61
2022/01/07 04:45:42;;;;;;;9.70;5.83;;;0.90;99.90;;;;;;5012457;28;20207;-60
2022/01/07 04:48:09;;;;;;;10.30;5.33;;;1.00;99.90;;;;;;5012216;28;20726;-60
2022/01/07 04:50:36;;;;;;;13.00;5.60;;;0.90;99.90;;;;;;5012291;28;20207;-60
2022/01/07 04:53:04;;;;;;;11.00;5.20;;;0.90;99.90;;;;;;5012273;28;20215;-61
2022/01/07 04:55:37;;;;;;;11.90;5.97;;;0.90;99.90;;;;;;5012115;28;20238;-61
2022/01/07 04:58:05;;;;;;;9.60;5.63;;;0.90;99.90;;;;;;5011896;28;20612;-61
2022/01/07 05:00:32;;;;;;;8.70;4.93;;;1.00;99.90;;;;;;5011931;28;20284;-61
2022/01/07 05:02:58;;;;;;;10.60;6.50;;;1.10;99.90;;;;;;5012146;28;20273;-61
2022/01/07 05:05:25;;;;;;;8.70;5.17;;;1.10;99.90;;;;;;5012127;28;20211;-60
2022/01/07 05:07:52;;;;;;;9.40;5.03;;;1.10;99.90;;;;;;5012013;28;20227;-60
2022/01/07 05:10:19;;;;;;;10.67;5.00;;;1.10;99.90;;;;;;5011982;28;20206;-60
2022/01/07 05:12:47;;;;;;;7.40;4.63;;;1.10;99.90;;;;;;5012059;28;20264;-61
2022/01/07 05:15:15;;;;;;;8.27;4.83;;;1.10;99.90;;;;;;5012110;28;20664;-61
2022/01/07 05:17:43;;;;;;;7.77;4.70;;;1.20;99.90;;;;;;5011783;28;20246;-60
2022/01/07 05:20:10;;;;;;;11.57;7.90;;;1.30;99.90;;;;;;5011683;28;20301;-60
2022/01/07 05:22:37;;;;;;;7.03;4.63;;;1.40;99.90;;;;;;5011860;28;20208;-61
2022/01/07 05:25:05;;;;;;;8.70;5.10;;;1.40;99.90;;;;;;5011791;28;20667;-61
2022/01/07 05:27:32;;;;;;;6.67;4.80;;;1.40;99.90;;;;;;5011754;28;20257;-62
2022/01/07 05:30:00;;;;;;;6.77;4.90;;;1.30;99.90;;;;;;5012668;28;20219;-62
2022/01/07 05:32:27;;;;;;;7.90;5.23;;;1.30;99.90;;;;;;5015653;28;20211;-62
2022/01/07 05:34:53;;;;;;;12.23;6.73;;;1.20;99.90;;;;;;5015471;28;20206;-62
2022/01/07 05:37:20;;;;;;;11.43;6.40;;;1.10;99.90;;;;;;5015194;28;20655;-62
2022/01/07 05:39:47;;;;;;;9.63;6.30;;;1.10;99.90;;;;;;5014864;28;20227;-62
2022/01/07 05:42:13;;;;;;;10.60;6.13;;;1.00;99.90;;;;;;5015404;28;20215;-62
2022/01/07 05:44:40;;;;;;;8.27;6.07;;;0.90;99.90;;;;;;5015123;28;20207;-62
2022/01/07 05:47:08;;;;;;;7.57;5.73;;;0.80;99.90;;;;;;5015324;28;20265;-62
2022/01/07 05:49:35;;;;;;;8.47;6.23;;;0.80;99.90;;;;;;5015220;28;20226;-62
2022/01/07 05:52:02;;;;;;;7.90;5.60;;;0.80;99.90;;;;;;5014992;28;20253;-62
2022/01/07 05:54:28;;;;;;;9.77;6.20;;;0.80;99.90;;;;;;5015211;28;20222;-62
2022/01/07 05:56:55;;;;;;;9.73;6.30;;;0.80;99.90;;;;;;5014944;28;20211;-61
2022/01/07 05:59:22;;;;;;;9.37;6.63;;;0.90;99.90;;;;;;5014497;28;20226;-63
2022/01/07 06:01:48;;;;;;;7.83;5.93;;;0.90;99.90;;;;;;5015010;28;20219;-62
2022/01/07 06:04:16;;;;;;;10.00;6.37;;;0.90;99.90;;;;;;5014905;28;20241;-62
2022/01/07 06:06:43;;;;;;;7.90;6.30;;;1.00;99.90;;;;;;5014775;28;20215;-62
2022/01/07 06:09:10;;;;;;;9.70;7.33;;;1.10;99.90;;;;;;5014573;28;20235;-62
2022/01/07 06:11:36;;;;;;;9.23;6.17;;;1.20;99.90;;;;;;5014687;28;20334;-62
2022/01/07 06:14:03;;;;;;;9.03;5.63;;;1.30;99.90;;;;;;5015012;28;20210;-62
2022/01/07 06:16:30;;;;;;;9.53;6.20;;;1.30;99.90;;;;;;5014665;28;20211;-62
2022/01/07 06:18:58;;;;;;;9.93;6.87;;;1.40;99.90;;;;;;5014716;28;20722;-62
2022/01/07 06:21:26;;;;;;;8.80;6.57;;;1.50;99.90;;;;;;5014119;28;20298;-62
2022/01/07 06:23:53;;;;;;;9.57;6.83;;;1.50;99.90;;;;;;5014576;28;20625;-62
2022/01/07 06:26:20;;;;;;;12.00;7.17;;;1.50;99.90;;;;;;5014374;28;20630;-62
2022/01/07 06:28:46;;;;;;;10.27;6.70;;;1.50;99.90;;;;;;5014525;28;20227;-62
2022/01/07 06:31:13;;;;;;;10.93;6.53;;;1.40;99.90;;;;;;5014266;28;20203;-61
2022/01/07 06:33:40;;;;;;;9.53;6.97;;;1.40;99.90;;;;;;5014865;28;20207;-61
2022/01/07 06:36:07;;;;;;;9.53;7.00;;;1.40;99.90;;;;;;5014958;28;20689;-61
2022/01/07 06:38:35;;;;;;;9.27;6.33;;;1.30;99.90;;;;;;5014622;28;20231;-61
2022/01/07 06:41:01;;;;;;;8.97;6.43;;;1.40;99.90;;;;;;5013795;28;20285;-61
2022/01/07 06:43:28;;;;;;;12.40;6.93;;;1.30;99.90;;;;;;5014044;28;20595;-61
2022/01/07 06:45:55;;;;;;;10.43;6.67;;;1.30;99.90;;;;;;5014271;28;20210;-61
2022/01/07 06:48:21;;;;;;;14.93;9.70;;;1.30;99.90;;;;;;5014072;28;20227;-61
2022/01/07 06:50:48;;;;;;;10.43;6.80;;;1.40;99.90;;;;;;5013969;28;20207;-61
2022/01/07 06:53:15;;;;;;;12.47;7.73;;;1.60;99.90;;;;;;5013995;28;20203;-61
2022/01/07 06:55:43;;;;;;;10.03;6.70;;;1.70;99.90;;;;;;5013905;28;20210;-61
2022/01/07 06:58:09;;;;;;;10.30;6.37;;;1.70;99.90;;;;;;5013801;28;20227;-61
2022/01/07 07:00:36;;;;;;;11.03;6.47;;;1.70;99.90;;;;;;5013470;28;20230;-61
2022/01/07 07:03:03;;;;;;;7.87;6.20;;;2.00;99.90;;;;;;5013516;28;20211;-61
2022/01/07 07:05:29;;;;;;;8.57;6.40;;;1.90;99.90;;;;;;5013979;28;20214;-61
2022/01/07 07:07:56;;;;;;;7.83;6.10;;;1.90;99.90;;;;;;5013674;28;20257;-63
2022/01/07 07:10:23;;;;;;;9.00;5.97;;;1.90;99.90;;;;;;5013198;28;20253;-62
2022/01/07 07:12:51;;;;;;;9.17;5.80;;;1.90;99.90;;;;;;5013534;28;20207;-61
2022/01/07 07:15:17;;;;;;;7.47;5.77;;;1.80;99.90;;;;;;5013446;28;20249;-62
2022/01/07 07:17:45;;;;;;;7.67;5.60;;;1.80;99.90;;;;;;5013103;28;20239;-61
2022/01/07 07:20:13;;;;;;;10.37;5.07;;;1.80;99.90;;;;;;5012686;28;20601;-61
2022/01/07 07:22:40;;;;;;;6.57;5.00;;;1.90;99.90;;;;;;5013407;28;20289;-61
2022/01/07 07:25:07;;;;;;;9.10;5.30;;;2.00;99.90;;;;;;5013533;28;20207;-61
2022/01/07 07:27:36;;;;;;;6.00;4.33;;;2.10;99.90;;;;;;5013192;28;20281;-61
2022/01/07 07:30:05;;;;;;;6.13;4.80;;;2.10;99.90;;;;;;5013034;28;20231;-61
2022/01/07 07:32:32;;;;;;;7.63;4.90;;;2.00;99.90;;;;;;5013439;28;20210;-62
2022/01/07 07:35:02;;;;;;;6.13;4.73;;;2.10;99.90;;;;;;5013215;28;20359;-61
2022/01/07 07:37:29;;;;;;;6.60;4.67;;;2.10;99.90;;;;;;5013049;28;20297;-61
2022/01/07 07:39:56;;;;;;;6.67;4.70;;;2.10;99.90;;;;;;5013346;28;20227;-61
2022/01/07 07:42:23;;;;;;;9.07;4.93;;;2.20;99.90;;;;;;5012982;28;20630;-61
2022/01/07 07:44:49;;;;;;;7.40;4.37;;;2.20;99.90;;;;;;5012817;28;20210;-61
2022/01/07 07:47:17;;;;;;;7.93;4.50;;;2.30;99.90;;;;;;5013041;28;20257;-61
2022/01/07 07:49:44;;;;;;;6.67;5.03;;;2.40;99.90;;;;;;5012764;28;20645;-61
2022/01/07 07:52:11;;;;;;;5.90;4.20;;;2.40;99.90;;;;;;5012715;28;20583;-61
2022/01/07 07:54:37;;;;;;;6.50;4.50;;;2.50;99.90;;;;;;5012814;28;20207;-61
2022/01/07 07:57:05;;;;;;;7.27;4.40;;;2.50;99.90;;;;;;5012758;28;20203;-61
2022/01/07 07:59:31;;;;;;;8.63;4.60;;;2.60;99.90;;;;;;5012050;28;20234;-61
2022/01/07 08:01:58;;;;;;;9.67;4.13;;;2.70;99.90;;;;;;5012613;28;20211;-61
2022/01/07 08:04:26;;;;;;;8.03;4.47;;;2.80;99.90;;;;;;5012963;28;20207;-61
2022/01/07 08:06:53;;;;;;;7.50;4.50;;;2.90;99.90;;;;;;5012915;28;20261;-62
2022/01/07 08:09:20;;;;;;;5.63;4.10;;;3.00;99.90;;;;;;5012488;28;20280;-62
2022/01/07 08:11:52;;;;;;;6.70;4.50;;;3.10;99.90;;;;;;5012401;28;20206;-61
2022/01/07 08:17:06;;;;;;;6.10;4.40;;;3.30;99.90;;;;;;5012344;28;20723;-62
2022/01/07 08:19:34;;;;;;;10.97;7.23;;;3.40;99.90;;;;;;5011882;28;20234;-62
2022/01/07 08:22:01;;;;;;;7.50;4.90;;;3.40;99.90;;;;;;5012302;28;20223;-61
2022/01/07 08:24:27;;;;;;;7.03;4.27;;;3.30;99.90;;;;;;5012309;28;20691;-62
2022/01/07 08:26:54;;;;;;;7.30;4.33;;;3.40;99.90;;;;;;5012756;28;20202;-61
2022/01/07 08:29:24;;;;;;;9.10;4.53;;;3.50;99.90;;;;;;5012196;28;20573;-62
2022/01/07 08:34:55;;;;;;;5.53;4.30;;;3.50;99.90;;;;;;5012410;28;20288;-61
2022/01/07 08:37:24;;;;;;;6.80;3.97;;;3.50;99.90;;;;;;5012176;28;20207;-61
2022/01/07 08:39:53;;;;;;;7.63;4.30;;;3.60;99.90;;;;;;5011982;28;20215;-61
2022/01/07 08:42:20;;;;;;;28.00;21.40;;;3.30;99.90;;;;;;5012369;28;20234;-61
2022/01/07 08:44:47;;;;;;;7.53;5.37;;;3.70;99.90;;;;;;5011845;28;20749;-61
2022/01/07 08:47:14;;;;;;;6.27;4.13;;;3.80;99.90;;;;;;5011990;28;20213;-61
2022/01/07 08:49:42;;;;;;;5.07;3.90;;;3.90;99.90;;;;;;5011813;28;20689;-61
2022/01/07 08:52:09;;;;;;;7.10;4.00;;;3.80;99.90;;;;;;5012137;28;20211;-61
2022/01/07 08:54:35;;;;;;;5.40;4.00;;;3.90;99.90;;;;;;5012155;28;20233;-61
2022/01/07 08:57:02;;;;;;;6.13;4.27;;;4.00;99.90;;;;;;5012001;28;20219;-61
2022/01/07 08:59:29;;;;;;;7.93;4.73;;;4.20;99.90;;;;;;5011761;28;20231;-61
2022/01/07 09:01:56;;;;;;;6.67;4.20;;;4.30;99.90;;;;;;5011997;28;20645;-61
2022/01/07 09:04:23;;;;;;;6.20;4.07;;;4.40;99.90;;;;;;5012313;28;20328;-61
2022/01/07 09:06:51;;;;;;;7.30;4.10;;;4.50;99.90;;;;;;5016031;28;20217;-62
2022/01/07 09:09:17;;;;;;;6.90;4.07;;;4.60;99.90;;;;;;5015854;28;20222;-62
2022/01/07 09:11:44;;;;;;;4.77;3.97;;;4.70;99.90;;;;;;5015528;28;20701;-62
2022/01/07 09:14:11;;;;;;;5.93;4.17;;;4.70;99.90;;;;;;5015504;28;20690;-61
2022/01/07 09:16:37;;;;;;;7.50;4.37;;;4.70;99.90;;;;;;5015502;28;20850;-61
2022/01/07 09:19:04;;;;;;;6.33;4.13;;;4.80;99.90;;;;;;5015420;28;20628;-61
2022/01/07 09:21:31;;;;;;;7.30;4.90;;;4.80;99.90;;;;;;5015329;28;20227;-61
2022/01/07 09:23:59;;;;;;;10.47;7.37;;;4.70;99.90;;;;;;5015776;28;20214;-61
2022/01/07 09:26:25;;;;;;;11.67;6.67;;;4.80;99.90;;;;;;5015288;28;20207;-61
2022/01/07 09:28:52;;;;;;;6.63;4.23;;;4.80;99.90;;;;;;5015461;28;20234;-61
2022/01/07 09:31:19;;;;;;;6.00;3.80;;;4.90;99.90;;;;;;5015199;28;20203;-62
2022/01/07 09:33:45;;;;;;;7.28;5.35;;;5.00;99.90;;;;;;5014618;28;20443;-69
2022/01/07 09:36:12;;;;;;;7.57;5.13;;;4.90;99.90;;;;;;5015105;28;20214;-62
2022/01/07 09:38:39;;;;;;;6.80;4.70;;;4.90;99.90;;;;;;5015267;28;20235;-63
2022/01/07 09:41:07;;;;;;;7.67;4.57;;;4.90;99.90;;;;;;5014840;28;20231;-62
2022/01/07 09:43:34;;;;;;;6.67;4.63;;;4.90;99.90;;;;;;5015090;28;20303;-62
2022/01/07 09:46:01;;;;;;;6.10;4.07;;;5.00;99.90;;;;;;5015242;28;20257;-62
2022/01/07 09:48:28;;;;;;;5.77;4.23;;;5.00;99.90;;;;;;5015192;28;20285;-62
2022/01/07 09:50:54;;;;;;;26.13;21.10;;;4.90;99.90;;;;;;5015020;28;20418;-62
2022/01/07 09:53:23;;;;;;;19.43;13.27;;;5.00;99.90;;;;;;5015062;28;20206;-62
2022/01/07 09:55:49;;;;;;;6.17;4.63;;;5.00;99.90;;;;;;5015118;28;20215;-62
2022/01/07 09:58:17;;;;;;;6.73;4.17;;;5.00;99.90;;;;;;5014569;28;20647;-62
2022/01/07 10:00:45;;;;;;;10.23;4.80;;;5.00;99.90;;;;;;5014998;28;20230;-62
2022/01/07 10:03:13;;;;;;;5.50;4.30;;;5.00;99.90;;;;;;5014876;28;20698;-62
2022/01/07 10:05:42;;;;;;;6.40;4.20;;;5.00;99.90;;;;;;5014923;28;20559;-62
2022/01/07 10:08:23;;;;;;;8.03;4.57;;;5.10;99.90;;;;;;5014680;28;20230;-62
2022/01/07 10:11:09;;;;;;;18.20;11.57;;;5.10;99.90;;;;;;5014543;28;20210;-62
2022/01/07 10:13:37;;;;;;;7.63;5.70;;;5.30;99.90;;;;;;5015429;28;20211;-61
2022/01/07 10:16:15;;;;;;;5.77;4.23;;;5.40;99.90;;;;;;5014459;28;20202;-62
2022/01/07 10:18:42;;;;;;;5.50;4.20;;;5.40;99.90;;;;;;5016061;28;20238;-62
2022/01/07 10:21:10;;;;;;;7.30;4.57;;;5.50;99.90;;;;;;5014840;28;20231;-62
2022/01/07 10:23:36;;;;;;;5.87;4.37;;;5.60;99.90;;;;;;5014821;28;20210;-62
2022/01/07 10:26:03;;;;;;;6.43;4.47;;;5.70;99.90;;;;;;5014527;28;20702;-61
2022/01/07 10:28:32;;;;;;;5.60;3.93;;;5.90;99.90;;;;;;5014561;28;20277;-62
2022/01/07 10:31:02;;;;;;;5.27;3.80;;;6.10;99.90;;;;;;5014819;28;20210;-62
2022/01/07 10:33:30;;;;;;;5.63;4.20;;;6.30;99.90;;;;;;5014928;28;20296;-63
2022/01/07 10:35:59;;;;;;;6.23;4.00;;;6.40;99.90;;;;;;5014967;28;20218;-63
2022/01/07 10:38:27;;;;;;;5.00;3.80;;;6.40;99.90;;;;;;5015026;28;20235;-62
2022/01/07 10:40:59;;;;;;;4.60;4.10;;;6.40;99.90;;;;;;5014466;28;20605;-61
2022/01/07 10:43:29;;;;;;;9.23;4.90;;;6.30;99.90;;;;;;5014515;28;20211;-62
2022/01/07 10:46:01;;;;;;;6.73;4.40;;;6.30;99.90;;;;;;5014078;28;20265;-62
2022/01/07 10:48:37;;;;;;;6.40;4.37;;;6.10;99.90;;;;;;5014505;28;20264;-61
2022/01/07 10:51:08;;;;;;;5.53;4.33;;;5.90;99.90;;;;;;5014028;28;20203;-62
2022/01/07 10:53:35;;;;;;;6.03;4.33;;;5.70;99.90;;;;;;5014375;28;20302;-62
2022/01/07 10:56:06;;;;;;;5.70;4.10;;;5.60;99.90;;;;;;5014263;28;20246;-62
2022/01/07 10:58:55;;;;;;;9.03;5.47;;;5.40;99.90;;;;;;5014243;28;20235;-62
2022/01/07 11:01:36;;;;;;;7.60;4.97;;;5.40;99.90;;;;;;5014455;28;20219;-62
2022/01/07 11:04:05;;;;;;;7.40;5.30;;;5.50;99.90;;;;;;5014666;28;20206;-62
2022/01/07 11:06:32;;;;;;;7.83;4.57;;;5.50;99.90;;;;;;5013933;28;20218;-62
2022/01/07 11:09:00;;;;;;;7.40;4.63;;;5.50;99.90;;;;;;5013928;28;20281;-63
2022/01/07 11:11:28;;;;;;;7.03;4.50;;;5.40;99.90;;;;;;5013398;28;20207;-63
2022/01/07 11:14:00;;;;;;;6.90;4.90;;;5.20;99.90;;;;;;5014464;28;20295;-63
2022/01/07 11:16:27;;;;;;;8.77;5.03;;;5.20;99.90;;;;;;5014007;28;20211;-63
2022/01/07 11:18:57;;;;;;;8.97;6.70;;;5.20;99.90;;;;;;5013600;28;20309;-62
2022/01/07 11:21:24;;;;;;;28.20;20.80;;;5.20;99.90;;;;;;5013730;28;20234;-63
2022/01/07 11:23:50;;;;;;;7.73;6.50;;;5.10;99.90;;;;;;5014106;28;20211;-61
2022/01/07 11:26:18;;;;;;;8.27;4.77;;;5.00;99.90;;;;;;5013571;28;20679;-64
2022/01/07 11:28:57;;;;;;;7.43;5.33;;;5.00;99.90;;;;;;5012918;28;20227;-62
2022/01/07 11:31:25;;;;;;;9.17;5.30;;;4.90;99.90;;;;;;5013116;28;20685;-62
2022/01/07 11:34:25;;;;;;;7.20;4.97;;;4.90;99.90;;;;;;5012941;28;20634;-62
2022/01/07 11:36:52;;;;;;;5.93;4.23;;;4.80;99.90;;;;;;5013150;28;20687;-62
2022/01/07 11:39:22;;;;;;;5.53;4.03;;;4.90;99.90;;;;;;5013066;28;20255;-59
2022/01/07 11:41:51;;;;;;;6.80;4.47;;;4.80;99.90;;;;;;5012859;28;20314;-65
2022/01/07 11:44:23;;;;;;;7.40;4.10;;;4.70;99.90;;;;;;5012943;28;20710;-64
2022/01/07 11:46:50;;;;;;;8.13;4.40;;;4.70;99.90;;;;;;5006078;28;20207;-65
2022/01/07 11:49:35;;;;;;;5.30;4.00;;;4.70;99.90;;;;;;5012998;28;20223;-63
2022/01/07 11:52:30;;;;;;;4.47;4.07;;;4.80;99.90;;;;;;5016316;28;20207;-61
2022/01/07 11:55:23;;;;;;;6.83;4.07;;;4.90;99.90;;;;;;5014870;28;20286;-62
2022/01/07 11:57:52;;;;;;;4.63;3.90;;;5.00;99.90;;;;;;5012746;28;20647;-61
2022/01/07 12:00:49;;;;;;;8.93;6.10;;;5.10;99.90;;;;;;5012637;28;20249;-63
2022/01/07 12:03:31;;;;;;;5.63;4.60;;;5.00;99.90;;;;;;5013254;28;20281;-63
2022/01/07 12:06:00;;;;;;;7.10;3.73;;;5.00;99.90;;;;;;5013348;28;20207;-65
2022/01/07 12:08:40;;;;;;;9.43;6.13;;;5.00;99.90;;;;;;5012384;28;20652;-66
2022/01/07 12:11:11;;;;;;;6.73;4.90;;;5.10;99.90;;;;;;5012649;28;20302;-61
2022/01/07 12:13:39;;;;;;;5.93;3.90;;;5.10;99.90;;;;;;5012142;28;20207;-62
2022/01/07 12:16:06;;;;;;;6.50;4.53;;;5.20;99.90;;;;;;5012725;28;20206;-62
2022/01/07 12:18:33;;;;;;;4.60;3.50;;;5.30;99.90;;;;;;5036179;22;20638;-61
2022/01/07 12:21:02;;;;;;;6.23;3.70;;;5.40;99.90;;;;;;5012496;28;20233;-64
2022/01/07 12:23:30;;;;;;;5.57;4.00;;;5.60;99.90;;;;;;5013030;28;20207;-60
2022/01/07 12:26:03;;;;;;;6.03;3.93;;;5.60;99.90;;;;;;5013162;28;20206;-59
2022/01/07 12:28:35;;;;;;;5.03;3.37;;;5.70;99.90;;;;;;5012443;28;20316;-60
2022/01/07 12:31:07;;;;;;;3.97;3.50;;;5.80;99.90;;;;;;5012263;28;20697;-60
2022/01/07 12:33:33;;;;;;;4.47;3.63;;;6.00;99.90;;;;;;5012668;28;20211;-59
2022/01/07 12:36:01;;;;;;;4.63;3.40;;;6.00;99.90;;;;;;5012229;28;20670;-60
2022/01/07 12:38:28;;;;;;;4.60;3.63;;;6.00;99.90;;;;;;5012166;28;20277;-65
2022/01/07 12:41:01;;;;;;;5.23;3.80;;;5.90;99.90;;;;;;5008011;28;20211;-65
2022/01/07 12:43:32;;;;;;;5.30;3.73;;;5.80;99.90;;;;;;5012045;28;20297;-58
2022/01/07 12:46:01;;;;;;;6.23;3.67;;;5.90;99.90;;;;;;5012274;28;20345;-59
2022/01/07 12:48:36;;;;;;;5.73;3.97;;;6.00;99.90;;;;;;5007450;28;20311;-59
2022/01/07 12:51:06;;;;;;;5.80;3.67;;;6.00;99.90;;;;;;4991956;28;20698;-58
2022/01/07 12:53:33;;;;;;;61.90;45.87;;;6.00;99.90;;;;;;4992280;28;20237;-60
2022/01/07 12:56:22;;;;;;;7.70;4.40;;;6.00;99.90;;;;;;4992577;28;20219;-59
2022/01/07 12:58:49;;;;;;;4.47;3.60;;;6.20;99.90;;;;;;4992658;28;20255;-63
2022/01/07 13:01:26;;;;;;;4.67;3.97;;;6.30;99.90;;;;;;4992135;28;20354;-60